createdAt,value
2023-02-26T00:01:43.866Z,88.00
2023-02-26T00:04:11.640Z,87.89
2023-02-26T00:06:53.148Z,87.81
2023-02-26T00:09:23.067Z,87.70
2023-02-26T00:11:51.473Z,87.71
2023-02-26T00:14:20.248Z,87.43
2023-02-26T00:16:54.636Z,87.26
2023-02-26T00:19:22.459Z,87.04
2023-02-26T00:21:50.656Z,87.50
2023-02-26T00:24:18.380Z,87.30
2023-02-26T00:26:47.164Z,87.28
2023-02-26T00:29:15.069Z,87.22
2023-02-26T00:31:43.131Z,87.28
2023-02-26T00:34:14.998Z,87.09
2023-02-26T00:37:01.163Z,87.35
2023-02-26T00:39:28.752Z,87.11
2023-02-26T00:41:57.135Z,87.32
2023-02-26T00:44:25.064Z,86.95
2023-02-26T00:47:00.180Z,86.60
2023-02-26T00:49:41.546Z,86.81
2023-02-26T00:52:26.151Z,87.49
2023-02-26T00:54:53.845Z,87.21
2023-02-26T00:57:21.517Z,86.96
2023-02-26T00:59:49.255Z,86.98
2023-02-26T01:02:17.066Z,87.37
2023-02-26T01:04:46.641Z,86.92
2023-02-26T01:07:15.412Z,86.60
2023-02-26T01:09:43.420Z,86.10
2023-02-26T01:12:17.537Z,86.01
2023-02-26T01:14:47.267Z,85.32
2023-02-26T01:17:29.614Z,84.71
2023-02-26T01:19:58.425Z,85.04
2023-02-26T01:22:38.924Z,84.76
2023-02-26T01:25:12.825Z,84.53
2023-02-26T01:27:41.064Z,84.08
2023-02-26T01:30:09.731Z,84.50
2023-02-26T01:32:46.471Z,83.83
2023-02-26T01:35:32.836Z,83.83
2023-02-26T01:38:03.804Z,84.18
2023-02-26T01:40:58.292Z,84.38
2023-02-26T01:43:29.843Z,84.75
2023-02-26T01:46:26.294Z,84.92
2023-02-26T01:48:57.090Z,85.03
2023-02-26T01:51:56.352Z,85.15
2023-02-26T01:54:38.146Z,84.91
2023-02-26T01:57:12.399Z,84.72
2023-02-26T01:59:45.100Z,84.67
2023-02-26T02:02:18.703Z,84.52
2023-02-26T02:04:47.934Z,84.81
2023-02-26T02:07:17.535Z,84.56
2023-02-26T02:09:47.586Z,84.19
2023-02-26T02:12:40.314Z,83.54
2023-02-26T02:15:17.972Z,83.47
2023-02-26T02:17:54.692Z,83.16
2023-02-26T02:20:47.231Z,83.43
2023-02-26T02:23:33.913Z,83.09
2023-02-26T02:26:25.860Z,82.04
2023-02-26T02:29:27.829Z,82.28
2023-02-26T02:32:06.817Z,81.85
2023-02-26T02:35:13.095Z,82.11
2023-02-26T02:37:50.873Z,81.67
2023-02-26T02:40:24.246Z,81.38
2023-02-26T02:43:06.053Z,81.72
2023-02-26T02:45:45.078Z,81.27
2023-02-26T02:48:26.893Z,81.08
2023-02-26T02:51:10.082Z,81.39
2023-02-26T02:53:45.270Z,80.88
2023-02-26T02:56:18.954Z,81.42
2023-02-26T02:58:53.767Z,81.28
2023-02-26T03:01:25.376Z,81.36
2023-02-26T03:04:12.265Z,81.87
2023-02-26T03:06:41.376Z,81.81
2023-02-26T03:09:10.420Z,81.97
2023-02-26T03:11:42.252Z,82.04
2023-02-26T03:14:11.039Z,82.40
2023-02-26T03:16:57.392Z,82.42
2023-02-26T03:19:34.387Z,82.55
2023-02-26T03:22:09.850Z,82.54
2023-02-26T03:25:17.032Z,82.82
2023-02-26T03:28:07.567Z,82.82
2023-02-26T03:30:50.834Z,83.02
2023-02-26T03:33:38.888Z,82.66
2023-02-26T03:36:19.190Z,82.69
2023-02-26T03:39:06.906Z,82.91
2023-02-26T03:41:45.212Z,82.87
2023-02-26T03:44:37.354Z,82.99
2023-02-26T03:47:08.806Z,82.80
2023-02-26T03:49:43.811Z,82.99
2023-02-26T03:52:13.506Z,82.91
2023-02-26T03:55:17.439Z,83.10
2023-02-26T03:58:11.486Z,83.29
2023-02-26T04:01:06.207Z,83.34
2023-02-26T04:03:43.024Z,83.41
2023-02-26T04:06:11.825Z,83.30
2023-02-26T04:08:40.899Z,83.39
2023-02-26T04:11:13.177Z,83.78
2023-02-26T04:13:40.845Z,83.51
2023-02-26T04:16:08.707Z,83.63
2023-02-26T04:18:37.092Z,83.79
2023-02-26T04:21:06.353Z,84.09
2023-02-26T04:23:34.112Z,84.02
2023-02-26T04:26:02.137Z,83.89
2023-02-26T04:28:30.315Z,84.17
2023-02-26T04:30:58.254Z,83.99
2023-02-26T04:33:27.225Z,84.43
2023-02-26T04:35:55.367Z,84.18
2023-02-26T04:38:23.337Z,84.33
2023-02-26T04:40:51.058Z,84.34
2023-02-26T04:43:20.062Z,84.27
2023-02-26T04:46:05.980Z,84.45
2023-02-26T04:48:35.250Z,84.44
2023-02-26T04:51:02.948Z,83.99
2023-02-26T04:53:30.704Z,84.21
2023-02-26T04:55:58.632Z,84.24
2023-02-26T04:58:26.312Z,84.12
2023-02-26T05:00:55.297Z,83.93
2023-02-26T05:03:23.312Z,84.10
2023-02-26T05:05:51.423Z,84.30
2023-02-26T05:08:19.082Z,84.67
2023-02-26T05:10:47.415Z,84.81
2023-02-26T05:13:15.223Z,84.59
2023-02-26T05:15:42.936Z,85.06
2023-02-26T05:18:12.443Z,84.55
2023-02-26T05:23:30.730Z,84.52
2023-02-26T05:25:58.709Z,83.74
2023-02-26T05:28:27.297Z,83.59
2023-02-26T05:30:57.675Z,83.20
2023-02-26T05:33:27.001Z,83.03
2023-02-26T05:35:55.013Z,83.07
2023-02-26T05:38:22.897Z,82.57
2023-02-26T05:40:50.592Z,82.47
2023-02-26T05:43:18.271Z,82.61
2023-02-26T05:45:45.912Z,82.39
2023-02-26T05:48:13.503Z,82.21
2023-02-26T05:50:41.128Z,82.13
2023-02-26T05:53:08.818Z,81.35
2023-02-26T05:55:36.839Z,80.55
2023-02-26T05:58:04.519Z,80.18
2023-02-26T06:00:32.272Z,80.02
2023-02-26T06:02:59.960Z,79.70
2023-02-26T06:05:27.632Z,79.20
2023-02-26T06:07:55.257Z,79.40
2023-02-26T06:10:22.938Z,79.52
2023-02-26T06:12:50.619Z,79.22
2023-02-26T06:15:18.365Z,79.19
2023-02-26T06:17:46.006Z,78.83
2023-02-26T06:20:13.834Z,78.55
2023-02-26T06:22:41.498Z,78.56
2023-02-26T06:25:09.493Z,78.93
2023-02-26T06:27:37.339Z,78.80
2023-02-26T06:30:06.093Z,78.44
2023-02-26T06:32:33.970Z,78.60
2023-02-26T06:35:02.094Z,78.97
2023-02-26T06:37:29.755Z,79.21
2023-02-26T06:39:57.396Z,78.96
2023-02-26T06:42:25.046Z,78.74
2023-02-26T06:44:52.698Z,78.52
2023-02-26T06:47:20.326Z,78.78
2023-02-26T06:49:49.084Z,78.00
2023-02-26T06:52:16.873Z,77.11
2023-02-26T06:54:44.938Z,76.39
2023-02-26T06:57:12.558Z,75.86
2023-02-26T06:59:40.163Z,75.92
2023-02-26T07:02:09.477Z,75.59
2023-02-26T07:04:37.104Z,75.11
2023-02-26T07:07:04.740Z,75.23
2023-02-26T07:09:32.386Z,75.08
2023-02-26T07:12:00.123Z,74.77
2023-02-26T07:14:27.850Z,74.73
2023-02-26T07:16:55.494Z,74.61
2023-02-26T07:19:23.173Z,75.32
2023-02-26T07:21:51.001Z,74.48
2023-02-26T07:24:18.680Z,74.11
2023-02-26T07:26:46.311Z,74.52
2023-02-26T07:29:14.012Z,73.83
2023-02-26T07:31:41.863Z,73.89
2023-02-26T07:34:09.849Z,74.21
2023-02-26T07:36:37.535Z,74.59
2023-02-26T07:39:05.209Z,74.28
2023-02-26T07:41:32.839Z,73.71
2023-02-26T07:44:00.483Z,73.32
2023-02-26T07:46:28.467Z,72.63
2023-02-26T07:48:56.401Z,72.83
2023-02-26T07:51:24.511Z,72.71
2023-02-26T07:53:52.509Z,73.23
2023-02-26T07:56:20.138Z,72.98
2023-02-26T07:58:47.973Z,72.92
2023-02-26T08:01:16.298Z,72.84
2023-02-26T08:03:43.964Z,72.57
2023-02-26T08:06:11.612Z,71.90
2023-02-26T08:08:39.324Z,71.97
2023-02-26T08:11:06.982Z,72.37
2023-02-26T08:13:34.664Z,72.26
2023-02-26T08:16:02.454Z,72.83
2023-02-26T08:18:30.469Z,72.93
2023-02-26T08:20:58.425Z,72.05
2023-02-26T08:23:26.897Z,71.98
2023-02-26T08:26:06.185Z,72.40
2023-02-26T08:28:34.699Z,72.75
2023-02-26T08:31:03.390Z,72.52
2023-02-26T08:33:31.149Z,72.85
2023-02-26T08:35:59.350Z,72.26
2023-02-26T08:38:29.015Z,72.06
2023-02-26T08:40:57.269Z,72.23
2023-02-26T08:43:25.743Z,71.88
2023-02-26T08:45:54.704Z,72.37
2023-02-26T08:48:23.069Z,72.34
2023-02-26T08:50:51.429Z,72.06
2023-02-26T08:53:19.156Z,71.97
2023-02-26T08:55:50.788Z,71.75
2023-02-26T08:58:19.779Z,71.91
2023-02-26T09:00:47.913Z,72.06
2023-02-26T09:03:15.823Z,71.46
2023-02-26T09:05:43.656Z,71.47
2023-02-26T09:08:13.507Z,71.77
2023-02-26T09:10:41.946Z,72.07
2023-02-26T09:13:09.893Z,72.32
2023-02-26T09:15:37.597Z,72.57
2023-02-26T09:18:06.457Z,72.68
2023-02-26T09:20:34.137Z,72.97
2023-02-26T09:23:01.776Z,72.74
2023-02-26T09:25:29.402Z,72.64
2023-02-26T09:27:58.683Z,73.00
2023-02-26T09:30:26.722Z,72.70
2023-02-26T09:45:10.244Z,73.43
2023-02-26T09:47:47.941Z,73.39
2023-02-26T09:50:21.896Z,73.00
2023-02-26T09:52:59.512Z,73.14
2023-02-26T09:55:34.736Z,73.71
2023-02-26T09:58:05.166Z,73.12
2023-02-26T10:00:41.204Z,72.96
2023-02-26T10:03:34.323Z,73.08
2023-02-26T10:06:13.883Z,72.91
2023-02-26T10:09:13.384Z,73.15
2023-02-26T10:11:56.955Z,72.97
2023-02-26T10:14:33.732Z,72.65
2023-02-26T10:17:08.407Z,72.83
2023-02-26T10:19:42.617Z,73.16
2023-02-26T10:22:56.518Z,72.93
2023-02-26T10:25:31.368Z,73.15
2023-02-26T10:28:39.659Z,72.94
2023-02-26T10:31:32.409Z,73.21
2023-02-26T10:34:15.247Z,73.27
2023-02-26T10:36:52.095Z,73.20
2023-02-26T10:39:28.758Z,73.73
2023-02-26T10:41:59.559Z,73.47
2023-02-26T10:44:47.923Z,72.38
2023-02-26T10:47:24.465Z,72.45
2023-02-26T10:50:01.653Z,72.95
2023-02-26T10:52:33.266Z,73.48
2023-02-26T10:55:27.707Z,73.25
2023-02-26T10:58:03.488Z,72.78
2023-02-26T11:00:31.653Z,72.73
2023-02-26T11:03:00.592Z,72.26
2023-02-26T11:05:31.534Z,72.49
2023-02-26T11:08:04.867Z,71.90
2023-02-26T11:10:50.634Z,72.55
2023-02-26T11:13:19.354Z,72.24
2023-02-26T11:15:51.418Z,71.62
2023-02-26T11:18:24.959Z,71.55
2023-02-26T11:20:57.461Z,70.96
2023-02-26T11:23:29.415Z,70.91
2023-02-26T11:26:06.461Z,71.64
2023-02-26T11:28:55.416Z,71.20
2023-02-26T11:31:26.438Z,70.46
2023-02-26T11:34:03.325Z,69.72
2023-02-26T11:36:34.144Z,69.23
2023-02-26T11:39:22.396Z,69.08
2023-02-26T11:41:52.986Z,68.73
2023-02-26T11:44:31.067Z,69.00
2023-02-26T11:47:02.311Z,68.96
2023-02-26T11:49:30.117Z,69.12
2023-02-26T11:52:21.596Z,68.65
2023-02-26T11:54:55.357Z,68.58
2023-02-26T11:57:27.666Z,69.18
2023-02-26T11:59:57.655Z,68.85
2023-02-26T12:02:30.502Z,68.79
2023-02-26T12:05:02.849Z,68.40
2023-02-26T12:07:31.073Z,68.43
2023-02-26T12:09:58.722Z,68.90
2023-02-26T12:12:47.641Z,69.42
2023-02-26T12:15:40.741Z,69.99
2023-02-26T12:18:26.759Z,68.93
2023-02-26T12:21:09.864Z,68.51
2023-02-26T12:23:46.328Z,69.31
2023-02-26T12:26:29.126Z,69.06
2023-02-26T12:29:15.671Z,68.61
2023-02-26T12:32:07.565Z,69.00
2023-02-26T12:35:01.745Z,68.32
2023-02-26T12:37:52.388Z,68.61
2023-02-26T12:40:59.804Z,68.49
2023-02-26T12:43:48.394Z,67.52
2023-02-26T12:46:31.711Z,68.17
2023-02-26T12:49:16.222Z,68.36
2023-02-26T12:51:56.078Z,67.71
2023-02-26T12:54:42.088Z,67.63
2023-02-26T12:57:29.004Z,67.88
2023-02-26T13:00:34.243Z,68.80
2023-02-26T13:03:22.279Z,68.07
2023-02-26T13:06:49.191Z,68.17
2023-02-26T13:09:42.102Z,66.35
2023-02-26T13:12:31.882Z,67.24
2023-02-26T13:15:02.041Z,66.64
2023-02-26T13:17:47.103Z,67.11
2023-02-26T13:23:14.069Z,66.31
2023-02-26T13:25:51.881Z,66.07
2023-02-26T13:28:24.194Z,66.26
2023-02-26T13:30:57.060Z,67.10
2023-02-26T13:33:34.448Z,66.37
2023-02-26T13:36:04.903Z,66.04
2023-02-26T13:38:46.702Z,65.78
2023-02-26T13:41:40.941Z,64.47
2023-02-26T13:44:33.151Z,65.49
2023-02-26T13:47:19.761Z,64.04
2023-02-26T13:49:51.094Z,64.88
2023-02-26T13:52:26.893Z,64.96
2023-02-26T13:54:57.437Z,65.16
2023-02-26T13:57:33.306Z,64.60
2023-02-26T14:00:12.554Z,65.13
2023-02-26T14:02:45.581Z,65.17
2023-02-26T14:05:37.957Z,66.12
2023-02-26T14:08:20.978Z,66.03
2023-02-26T14:11:04.476Z,65.17
2023-02-26T14:13:41.788Z,66.05
2023-02-26T14:16:12.901Z,65.75
2023-02-26T14:18:40.773Z,65.21
2023-02-26T14:21:26.990Z,65.35
2023-02-26T14:24:05.516Z,65.64
2023-02-26T14:26:46.458Z,65.98
2023-02-26T14:29:21.134Z,65.95
2023-02-26T14:31:55.790Z,66.10
2023-02-26T14:34:27.094Z,64.85
2023-02-26T14:36:58.577Z,66.04
2023-02-26T14:39:36.232Z,66.07
2023-02-26T14:42:14.622Z,66.07
2023-02-26T14:44:46.689Z,66.25
2023-02-26T14:47:15.730Z,65.74
2023-02-26T14:49:46.680Z,65.34
2023-02-26T14:52:40.327Z,66.22
2023-02-26T14:55:16.876Z,66.66
2023-02-26T14:58:01.018Z,66.35
2023-02-26T15:00:52.398Z,66.35
2023-02-26T15:03:57.383Z,66.35
2023-02-26T15:06:43.682Z,66.71
2023-02-26T15:09:23.921Z,66.59
2023-02-26T15:12:05.582Z,66.69
2023-02-26T15:14:52.400Z,67.45
2023-02-26T15:17:49.298Z,67.54
2023-02-26T15:20:48.094Z,67.04
2023-02-26T15:23:56.486Z,67.45
2023-02-26T15:26:30.864Z,67.60
2023-02-26T15:29:04.828Z,67.78
2023-02-26T15:31:45.725Z,66.88
2023-02-26T15:34:16.694Z,67.67
2023-02-26T15:36:53.214Z,67.95
2023-02-26T15:39:28.572Z,67.85
2023-02-26T15:41:57.520Z,68.10
2023-02-26T15:44:30.403Z,68.55
2023-02-26T15:47:01.551Z,68.68
2023-02-26T15:49:35.952Z,69.04
2023-02-26T15:52:07.185Z,68.77
2023-02-26T15:54:41.878Z,69.19
2023-02-26T15:57:12.190Z,69.25
2023-02-26T15:59:44.753Z,69.53
2023-02-26T16:02:13.761Z,70.30
2023-02-26T16:04:42.974Z,70.40
2023-02-26T16:07:12.444Z,70.27
2023-02-26T16:09:44.701Z,70.31
2023-02-26T16:12:22.192Z,70.01
2023-02-26T16:14:58.996Z,70.38
2023-02-26T16:17:30.732Z,70.88
2023-02-26T16:22:32.272Z,71.31
2023-02-26T16:25:09.295Z,71.09
2023-02-26T16:27:37.612Z,70.91
2023-02-26T16:30:06.721Z,71.64
2023-02-26T16:32:35.981Z,72.48
2023-02-26T16:35:19.984Z,73.10
2023-02-26T16:37:50.239Z,73.39
2023-02-26T16:40:19.010Z,73.27
2023-02-26T16:43:05.053Z,73.17
2023-02-26T16:45:36.095Z,73.80
2023-02-26T16:48:11.336Z,74.64
2023-02-26T16:50:40.621Z,73.84
2023-02-26T16:53:14.316Z,74.45
2023-02-26T16:55:47.354Z,74.29
2023-02-26T16:58:16.054Z,74.16
2023-02-26T17:00:46.470Z,74.83
2023-02-26T17:03:17.806Z,74.84
2023-02-26T17:06:09.369Z,74.95
2023-02-26T17:09:10.284Z,74.42
2023-02-26T17:11:39.512Z,74.85
2023-02-26T17:14:13.984Z,74.04
2023-02-26T17:16:41.722Z,73.77
2023-02-26T17:19:09.566Z,73.63
2023-02-26T17:21:58.989Z,75.11
2023-02-26T17:24:32.014Z,75.73
2023-02-26T17:27:01.473Z,77.26
2023-02-26T17:29:39.903Z,77.65
2023-02-26T17:32:20.077Z,77.93
2023-02-26T17:34:48.307Z,77.70
2023-02-26T17:37:18.027Z,77.69
2023-02-26T17:39:46.572Z,78.20
2023-02-26T17:42:21.308Z,77.83
2023-02-26T17:44:50.389Z,77.15
2023-02-26T17:47:22.645Z,78.62
2023-02-26T17:49:50.382Z,76.87
2023-02-26T17:52:18.189Z,76.14
2023-02-26T17:54:46.035Z,77.28
2023-02-26T17:57:21.690Z,76.80
2023-02-26T17:59:49.620Z,78.00
2023-02-26T18:02:22.238Z,76.78
2023-02-26T18:04:50.112Z,77.17
2023-02-26T18:07:19.178Z,75.97
2023-02-26T18:09:48.283Z,76.25
2023-02-26T18:12:19.372Z,76.03
2023-02-26T18:14:47.808Z,75.78
2023-02-26T18:17:23.864Z,75.54
2023-02-26T18:19:52.133Z,75.40
2023-02-26T18:22:25.306Z,75.05
2023-02-26T18:24:56.257Z,74.92
2023-02-26T18:27:25.575Z,74.86
2023-02-26T18:29:53.988Z,74.75
2023-02-26T18:32:24.093Z,74.56
2023-02-26T18:34:52.778Z,74.10
2023-02-26T18:37:23.731Z,74.09
2023-02-26T18:39:52.288Z,74.12
2023-02-26T18:42:21.364Z,73.66
2023-02-26T18:44:50.199Z,73.85
2023-02-26T18:47:18.965Z,73.85
2023-02-26T18:49:48.553Z,73.75
2023-02-26T18:52:17.170Z,73.82
2023-02-26T18:54:47.078Z,73.59
2023-02-26T18:57:15.246Z,73.39
2023-02-26T18:59:43.128Z,73.29
2023-02-26T19:02:13.955Z,73.30
2023-02-26T19:04:42.377Z,73.04
2023-02-26T19:07:10.167Z,73.19
2023-02-26T19:09:38.118Z,73.27
2023-02-26T19:12:06.513Z,72.72
2023-02-26T19:14:34.519Z,73.17
2023-02-26T19:17:02.458Z,72.70
2023-02-26T19:23:01.102Z,72.92
2023-02-26T19:25:30.867Z,72.91
2023-02-26T19:27:58.568Z,72.13
2023-02-26T19:30:27.457Z,72.56
2023-02-26T19:32:55.296Z,72.51
2023-02-26T19:35:26.915Z,72.03
2023-02-26T19:37:54.601Z,71.83
2023-02-26T19:40:22.482Z,71.53
2023-02-26T19:42:51.010Z,71.60
2023-02-26T19:45:18.882Z,71.71
2023-02-26T19:47:47.055Z,71.32
2023-02-26T19:50:14.796Z,71.06
2023-02-26T19:52:42.589Z,71.36
2023-02-26T19:55:10.941Z,70.90
2023-02-26T19:57:38.617Z,70.48
2023-02-26T20:00:07.278Z,69.26
2023-02-26T20:02:41.955Z,68.00
2023-02-26T20:05:16.048Z,68.23
2023-02-26T20:07:44.992Z,68.00
2023-02-26T20:10:13.028Z,66.53
2023-02-26T20:12:40.853Z,67.06
2023-02-26T20:15:09.029Z,66.24
2023-02-26T20:17:37.004Z,65.53
2023-02-26T20:22:43.450Z,65.42
2023-02-26T20:25:11.455Z,65.35
2023-02-26T20:27:39.228Z,64.78
2023-02-26T20:30:08.246Z,65.05
2023-02-26T20:32:37.108Z,64.40
2023-02-26T20:35:05.683Z,65.86
2023-02-26T20:37:33.567Z,65.85
2023-02-26T20:40:01.300Z,65.64
2023-02-26T20:42:29.150Z,65.20
2023-02-26T20:44:56.979Z,64.96
2023-02-26T20:47:24.845Z,65.11
2023-02-26T20:49:52.769Z,65.20
2023-02-26T20:52:21.642Z,65.67
2023-02-26T20:54:49.361Z,66.00
2023-02-26T20:57:17.213Z,66.43
2023-02-26T20:59:45.004Z,67.21
2023-02-26T21:02:13.947Z,67.16
2023-02-26T21:04:42.072Z,67.31
2023-02-26T21:07:13.408Z,67.61
2023-02-26T21:09:41.793Z,67.33
2023-02-26T21:12:09.577Z,66.54
2023-02-26T21:14:37.190Z,67.31
2023-02-26T21:17:05.122Z,67.43
2023-02-26T21:19:33.003Z,67.24
2023-02-26T21:22:03.312Z,67.63
2023-02-26T21:24:31.075Z,67.84
2023-02-26T21:26:58.852Z,68.18
2023-02-26T21:29:26.593Z,68.08
2023-02-26T21:31:56.973Z,68.16
2023-02-26T21:34:33.613Z,68.27
2023-02-26T21:37:07.904Z,68.53
2023-02-26T21:39:37.948Z,68.56
2023-02-26T21:42:07.867Z,68.49
2023-02-26T21:44:36.209Z,68.90
2023-02-26T21:47:04.217Z,68.97
2023-02-26T21:49:32.491Z,69.39
2023-02-26T21:52:04.509Z,69.41
2023-02-26T21:54:32.624Z,69.75
2023-02-26T21:57:00.381Z,69.75
2023-02-26T21:59:28.208Z,69.94
2023-02-26T22:01:56.469Z,70.07
2023-02-26T22:04:24.417Z,70.32
2023-02-26T22:06:52.339Z,70.49
2023-02-26T22:09:20.120Z,70.98
2023-02-26T22:11:48.005Z,71.18
2023-02-26T22:14:15.954Z,71.77
2023-02-26T22:16:43.727Z,72.10
2023-02-26T22:19:11.486Z,72.09
2023-02-26T22:21:39.209Z,73.21
2023-02-26T22:24:07.361Z,73.29
2023-02-26T22:26:35.076Z,73.67
2023-02-26T22:29:03.798Z,73.60
2023-02-26T22:31:32.504Z,74.65
2023-02-26T22:34:00.824Z,74.97
2023-02-26T22:36:31.218Z,75.03
2023-02-26T22:38:58.944Z,75.03
2023-02-26T22:41:26.703Z,74.52
2023-02-26T22:43:54.971Z,75.01
2023-02-26T22:46:24.503Z,74.93
2023-02-26T22:48:52.171Z,75.21
2023-02-26T22:51:19.871Z,76.17
2023-02-26T22:53:47.512Z,76.41
2023-02-26T22:56:15.201Z,75.79
2023-02-26T22:58:43.166Z,76.02
2023-02-26T23:01:10.895Z,76.42
2023-02-26T23:03:38.610Z,77.55
2023-02-26T23:06:06.690Z,77.50
2023-02-26T23:08:34.974Z,77.11
2023-02-26T23:11:03.755Z,77.29
2023-02-26T23:13:34.255Z,77.05
2023-02-26T23:16:04.990Z,77.26
2023-02-26T23:18:34.157Z,76.91
2023-02-26T23:21:02.341Z,77.43
2023-02-26T23:23:29.998Z,77.20
2023-02-26T23:25:57.784Z,78.23
2023-02-26T23:28:25.547Z,77.13
2023-02-26T23:30:53.328Z,76.91
2023-02-26T23:33:21.072Z,77.19
2023-02-26T23:35:49.131Z,77.22
2023-02-26T23:38:16.859Z,77.82
2023-02-26T23:40:44.573Z,77.26
2023-02-26T23:43:12.206Z,77.56
2023-02-26T23:45:40.056Z,77.24
2023-02-26T23:48:07.768Z,77.51
2023-02-26T23:50:35.661Z,77.63
2023-02-26T23:53:03.282Z,77.44
2023-02-26T23:55:31.125Z,77.71
2023-02-26T23:57:58.878Z,77.33
